YBTL

Townsville Airport

Airport
ICAO code
YBTL
IATA Code
TSV
Summary
ICAO Region
APAC
ICAO Territory
Location

, Queensland

Serving
Townsville
Elevation
18 ft
Coordinates
19° 15' 9" S , 146° 45' 55" E
Metar
Observation
YBTL 021330Z AUTO 15006KT 9999 // SCT031 24/20 Q1008
Station
Townsville Amo
Date/Time
2022-12-02 13:30:00
Wind direction
150°
Wind speed
06 kts
Lowest cloud amount
scattered clouds
Temperature
24°C
Dew point
20°C
Humidity
78%
QNH
1008 hPa
Weather condition
n/a

Airport map

Aerial View

SKYbrary Partners:

Safety knowledge contributed by: